sensor_id;sensor_type;location;lat;lon;timestamp;temperature;humidity
2995;DHT22;35277;49.890;8.222;2023-02-02T00:01:27;21.50;60.60
2995;DHT22;35277;49.890;8.222;2023-02-02T00:03:55;21.50;60.60
2995;DHT22;35277;49.890;8.222;2023-02-02T00:06:26;21.50;60.60
2995;DHT22;35277;49.890;8.222;2023-02-02T00:08:55;21.40;60.40
2995;DHT22;35277;49.890;8.222;2023-02-02T00:11:24;21.40;60.40
2995;DHT22;35277;49.890;8.222;2023-02-02T00:13:53;21.50;60.60
2995;DHT22;35277;49.890;8.222;2023-02-02T00:16:39;21.50;60.50
2995;DHT22;35277;49.890;8.222;2023-02-02T00:19:09;21.40;60.40
2995;DHT22;35277;49.890;8.222;2023-02-02T00:21:39;21.40;60.40
2995;DHT22;35277;49.890;8.222;2023-02-02T00:24:08;21.50;60.50
2995;DHT22;35277;49.890;8.222;2023-02-02T00:26:36;21.50;60.50
2995;DHT22;35277;49.890;8.222;2023-02-02T00:29:06;21.40;60.40
2995;DHT22;35277;49.890;8.222;2023-02-02T00:31:34;21.40;60.40
2995;DHT22;35277;49.890;8.222;2023-02-02T00:34:02;21.40;60.40
2995;DHT22;35277;49.890;8.222;2023-02-02T00:36:30;21.40;60.40
2995;DHT22;35277;49.890;8.222;2023-02-02T00:38:59;21.40;60.40
2995;DHT22;35277;49.890;8.222;2023-02-02T00:41:27;21.50;60.50
2995;DHT22;35277;49.890;8.222;2023-02-02T00:43:54;21.40;60.30
2995;DHT22;35277;49.890;8.222;2023-02-02T00:46:40;21.40;60.40
2995;DHT22;35277;49.890;8.222;2023-02-02T00:49:08;21.40;60.40
2995;DHT22;35277;49.890;8.222;2023-02-02T00:51:37;21.40;60.40
2995;DHT22;35277;49.890;8.222;2023-02-02T00:54:06;21.40;60.40
2995;DHT22;35277;49.890;8.222;2023-02-02T00:56:34;21.50;60.50
2995;DHT22;35277;49.890;8.222;2023-02-02T00:59:02;21.50;60.50
2995;DHT22;35277;49.890;8.222;2023-02-02T01:01:29;21.50;60.50
2995;DHT22;35277;49.890;8.222;2023-02-02T01:03:57;21.50;60.50
2995;DHT22;35277;49.890;8.222;2023-02-02T01:06:25;21.40;60.30
2995;DHT22;35277;49.890;8.222;2023-02-02T01:08:53;21.40;60.30
2995;DHT22;35277;49.890;8.222;2023-02-02T01:11:23;21.50;60.50
2995;DHT22;35277;49.890;8.222;2023-02-02T01:13:52;21.50;60.50
2995;DHT22;35277;49.890;8.222;2023-02-02T01:16:20;21.50;60.50
2995;DHT22;35277;49.890;8.222;2023-02-02T01:18:49;21.50;60.50
2995;DHT22;35277;49.890;8.222;2023-02-02T01:21:17;21.50;60.50
2995;DHT22;35277;49.890;8.222;2023-02-02T01:23:46;21.50;60.50
2995;DHT22;35277;49.890;8.222;2023-02-02T01:26:14;21.50;60.50
2995;DHT22;35277;49.890;8.222;2023-02-02T01:28:44;21.50;60.50
2995;DHT22;35277;49.890;8.222;2023-02-02T01:31:14;21.50;60.50
2995;DHT22;35277;49.890;8.222;2023-02-02T01:33:42;21.40;60.40
2995;DHT22;35277;49.890;8.222;2023-02-02T01:36:19;21.50;60.50
2995;DHT22;35277;49.890;8.222;2023-02-02T01:38:48;21.50;60.50
2995;DHT22;35277;49.890;8.222;2023-02-02T01:41:18;21.50;60.50
2995;DHT22;35277;49.890;8.222;2023-02-02T01:43:53;21.50;60.50
2995;DHT22;35277;49.890;8.222;2023-02-02T01:46:23;21.40;60.40
2995;DHT22;35277;49.890;8.222;2023-02-02T01:48:53;21.40;60.40
2995;DHT22;35277;49.890;8.222;2023-02-02T01:51:26;21.50;60.50
2995;DHT22;35277;49.890;8.222;2023-02-02T01:53:57;21.50;60.50
2995;DHT22;35277;49.890;8.222;2023-02-02T01:56:31;21.50;60.50
2995;DHT22;35277;49.890;8.222;2023-02-02T01:59:02;21.50;60.60
2995;DHT22;35277;49.890;8.222;2023-02-02T02:01:30;21.50;60.50
2995;DHT22;35277;49.890;8.222;2023-02-02T02:03:58;21.40;60.40
2995;DHT22;35277;49.890;8.222;2023-02-02T02:06:27;21.40;60.40
2995;DHT22;35277;49.890;8.222;2023-02-02T02:08:58;21.50;60.50
2995;DHT22;35277;49.890;8.222;2023-02-02T02:11:26;21.50;60.50
2995;DHT22;35277;49.890;8.222;2023-02-02T02:13:56;21.40;60.40
2995;DHT22;35277;49.890;8.222;2023-02-02T02:16:55;21.50;60.60
2995;DHT22;35277;49.890;8.222;2023-02-02T02:19:55;21.50;60.50
2995;DHT22;35277;49.890;8.222;2023-02-02T02:23:02;21.40;60.40
2995;DHT22;35277;49.890;8.222;2023-02-02T02:26:09;21.40;60.50
2995;DHT22;35277;49.890;8.222;2023-02-02T02:29:17;21.50;60.70
2995;DHT22;35277;49.890;8.222;2023-02-02T02:32:14;21.40;61.40
2995;DHT22;35277;49.890;8.222;2023-02-02T02:34:51;21.40;60.70
2995;DHT22;35277;49.890;8.222;2023-02-02T02:37:31;21.40;60.80
2995;DHT22;35277;49.890;8.222;2023-02-02T02:40:03;21.50;60.90
2995;DHT22;35277;49.890;8.222;2023-02-02T02:42:36;21.40;60.80
2995;DHT22;35277;49.890;8.222;2023-02-02T02:45:07;21.40;60.80
2995;DHT22;35277;49.890;8.222;2023-02-02T02:47:38;21.40;60.80
2995;DHT22;35277;49.890;8.222;2023-02-02T02:50:08;21.40;60.80
2995;DHT22;35277;49.890;8.222;2023-02-02T02:52:37;21.40;60.80
2995;DHT22;35277;49.890;8.222;2023-02-02T02:55:08;21.50;60.90
2995;DHT22;35277;49.890;8.222;2023-02-02T02:57:57;21.50;60.90
2995;DHT22;35277;49.890;8.222;2023-02-02T03:00:39;21.50;60.90
2995;DHT22;35277;49.890;8.222;2023-02-02T03:03:18;21.40;60.80
2995;DHT22;35277;49.890;8.222;2023-02-02T03:05:51;21.50;60.90
2995;DHT22;35277;49.890;8.222;2023-02-02T03:08:25;21.50;60.90
2995;DHT22;35277;49.890;8.222;2023-02-02T03:10:55;21.40;60.80
2995;DHT22;35277;49.890;8.222;2023-02-02T03:13:25;21.50;60.90
2995;DHT22;35277;49.890;8.222;2023-02-02T03:15:53;21.40;60.80
2995;DHT22;35277;49.890;8.222;2023-02-02T03:18:26;21.40;60.80
2995;DHT22;35277;49.890;8.222;2023-02-02T03:20:55;21.40;60.80
2995;DHT22;35277;49.890;8.222;2023-02-02T03:23:23;21.40;60.80
2995;DHT22;35277;49.890;8.222;2023-02-02T03:25:51;21.50;60.90
2995;DHT22;35277;49.890;8.222;2023-02-02T03:28:20;21.40;60.80
2995;DHT22;35277;49.890;8.222;2023-02-02T03:30:50;21.40;60.80
2995;DHT22;35277;49.890;8.222;2023-02-02T03:33:18;21.40;60.80
2995;DHT22;35277;49.890;8.222;2023-02-02T03:35:47;21.50;60.90
2995;DHT22;35277;49.890;8.222;2023-02-02T03:38:15;21.40;60.80
2995;DHT22;35277;49.890;8.222;2023-02-02T03:40:43;21.40;60.80
2995;DHT22;35277;49.890;8.222;2023-02-02T03:43:11;21.50;60.90
2995;DHT22;35277;49.890;8.222;2023-02-02T03:45:39;21.50;60.90
2995;DHT22;35277;49.890;8.222;2023-02-02T03:48:07;21.50;60.90
2995;DHT22;35277;49.890;8.222;2023-02-02T03:50:36;21.40;60.80
2995;DHT22;35277;49.890;8.222;2023-02-02T03:53:05;21.40;60.80
2995;DHT22;35277;49.890;8.222;2023-02-02T03:55:33;21.50;60.90
2995;DHT22;35277;49.890;8.222;2023-02-02T03:58:00;21.50;60.90
2995;DHT22;35277;49.890;8.222;2023-02-02T04:00:28;21.40;60.80
2995;DHT22;35277;49.890;8.222;2023-02-02T04:02:56;21.40;60.80
2995;DHT22;35277;49.890;8.222;2023-02-02T04:05:24;21.50;60.90
2995;DHT22;35277;49.890;8.222;2023-02-02T04:07:53;21.50;60.90
2995;DHT22;35277;49.890;8.222;2023-02-02T04:10:22;21.40;60.80
2995;DHT22;35277;49.890;8.222;2023-02-02T04:12:50;21.50;60.90
2995;DHT22;35277;49.890;8.222;2023-02-02T04:15:18;21.40;60.80
2995;DHT22;35277;49.890;8.222;2023-02-02T04:17:46;21.50;60.90
2995;DHT22;35277;49.890;8.222;2023-02-02T04:20:13;21.50;60.90
2995;DHT22;35277;49.890;8.222;2023-02-02T04:22:41;21.50;60.90
2995;DHT22;35277;49.890;8.222;2023-02-02T04:25:09;21.40;60.80
2995;DHT22;35277;49.890;8.222;2023-02-02T04:27:38;21.50;60.90
2995;DHT22;35277;49.890;8.222;2023-02-02T04:30:07;21.40;60.80
2995;DHT22;35277;49.890;8.222;2023-02-02T04:32:35;21.50;60.90
2995;DHT22;35277;49.890;8.222;2023-02-02T04:35:03;21.50;60.90
2995;DHT22;35277;49.890;8.222;2023-02-02T04:37:32;21.40;60.80
2995;DHT22;35277;49.890;8.222;2023-02-02T04:40:00;21.40;60.80
2995;DHT22;35277;49.890;8.222;2023-02-02T04:42:28;21.50;60.90
2995;DHT22;35277;49.890;8.222;2023-02-02T04:44:59;21.50;60.90
2995;DHT22;35277;49.890;8.222;2023-02-02T04:47:26;21.50;60.90
2995;DHT22;35277;49.890;8.222;2023-02-02T04:49:54;21.40;60.80
2995;DHT22;35277;49.890;8.222;2023-02-02T04:52:22;21.50;60.90
2995;DHT22;35277;49.890;8.222;2023-02-02T04:54:50;21.50;61.00
2995;DHT22;35277;49.890;8.222;2023-02-02T04:57:18;21.40;60.90
2995;DHT22;35277;49.890;8.222;2023-02-02T04:59:45;21.40;60.90
2995;DHT22;35277;49.890;8.222;2023-02-02T05:02:14;21.40;61.10
2995;DHT22;35277;49.890;8.222;2023-02-02T05:04:42;21.50;61.20
2995;DHT22;35277;49.890;8.222;2023-02-02T05:07:10;21.50;61.30
2995;DHT22;35277;49.890;8.222;2023-02-02T05:09:38;21.50;61.40
2995;DHT22;35277;49.890;8.222;2023-02-02T05:12:06;21.40;61.40
2995;DHT22;35277;49.890;8.222;2023-02-02T05:14:34;21.40;61.50
2995;DHT22;35277;49.890;8.222;2023-02-02T05:17:02;21.50;61.70
2995;DHT22;35277;49.890;8.222;2023-02-02T05:19:31;21.50;61.80
2995;DHT22;35277;49.890;8.222;2023-02-02T05:21:59;21.50;61.80
2995;DHT22;35277;49.890;8.222;2023-02-02T05:24:27;21.40;61.80
2995;DHT22;35277;49.890;8.222;2023-02-02T05:26:55;21.40;61.80
2995;DHT22;35277;49.890;8.222;2023-02-02T05:29:26;21.40;61.80
2995;DHT22;35277;49.890;8.222;2023-02-02T05:31:54;21.50;62.00
2995;DHT22;35277;49.890;8.222;2023-02-02T05:34:22;21.50;62.00
2995;DHT22;35277;49.890;8.222;2023-02-02T05:36:51;21.40;61.90
2995;DHT22;35277;49.890;8.222;2023-02-02T05:39:19;21.50;62.10
2995;DHT22;35277;49.890;8.222;2023-02-02T05:41:47;21.50;62.10
2995;DHT22;35277;49.890;8.222;2023-02-02T05:44:14;21.40;62.00
2995;DHT22;35277;49.890;8.222;2023-02-02T05:46:42;21.50;62.10
2995;DHT22;35277;49.890;8.222;2023-02-02T05:49:12;21.50;62.10
2995;DHT22;35277;49.890;8.222;2023-02-02T05:51:42;21.40;62.00
2995;DHT22;35277;49.890;8.222;2023-02-02T05:54:13;21.40;62.00
2995;DHT22;35277;49.890;8.222;2023-02-02T05:56:45;21.40;62.00
2995;DHT22;35277;49.890;8.222;2023-02-02T05:59:13;21.40;62.00
2995;DHT22;35277;49.890;8.222;2023-02-02T06:01:41;21.40;61.90
2995;DHT22;35277;49.890;8.222;2023-02-02T06:04:08;21.40;62.00
2995;DHT22;35277;49.890;8.222;2023-02-02T06:06:36;21.40;62.00
2995;DHT22;35277;49.890;8.222;2023-02-02T06:09:05;21.40;62.00
2995;DHT22;35277;49.890;8.222;2023-02-02T06:11:35;21.40;62.00
2995;DHT22;35277;49.890;8.222;2023-02-02T06:14:03;21.40;62.10
2995;DHT22;35277;49.890;8.222;2023-02-02T06:16:30;21.40;62.10
2995;DHT22;35277;49.890;8.222;2023-02-02T06:18:58;21.40;62.20
2995;DHT22;35277;49.890;8.222;2023-02-02T06:21:26;21.40;62.30
2995;DHT22;35277;49.890;8.222;2023-02-02T06:23:57;21.40;62.40
2995;DHT22;35277;49.890;8.222;2023-02-02T06:26:25;21.50;62.60
2995;DHT22;35277;49.890;8.222;2023-02-02T06:28:55;21.40;62.50
2995;DHT22;35277;49.890;8.222;2023-02-02T06:31:23;21.40;62.50
2995;DHT22;35277;49.890;8.222;2023-02-02T06:33:55;21.50;62.70
2995;DHT22;35277;49.890;8.222;2023-02-02T06:36:25;21.50;62.70
2995;DHT22;35277;49.890;8.222;2023-02-02T06:38:55;21.40;62.70
2995;DHT22;35277;49.890;8.222;2023-02-02T06:41:23;21.50;62.80
2995;DHT22;35277;49.890;8.222;2023-02-02T06:43:51;21.50;62.80
2995;DHT22;35277;49.890;8.222;2023-02-02T06:46:20;21.50;62.80
2995;DHT22;35277;49.890;8.222;2023-02-02T06:48:48;21.50;62.90
2995;DHT22;35277;49.890;8.222;2023-02-02T06:51:16;21.50;62.90
2995;DHT22;35277;49.890;8.222;2023-02-02T06:53:46;21.50;63.00
2995;DHT22;35277;49.890;8.222;2023-02-02T06:56:15;21.50;63.80
2995;DHT22;35277;49.890;8.222;2023-02-02T06:58:42;21.50;63.00
2995;DHT22;35277;49.890;8.222;2023-02-02T07:01:12;21.50;63.00
2995;DHT22;35277;49.890;8.222;2023-02-02T07:03:41;21.50;62.90
2995;DHT22;35277;49.890;8.222;2023-02-02T07:06:11;21.50;62.80
2995;DHT22;35277;49.890;8.222;2023-02-02T07:08:39;21.50;62.80
2995;DHT22;35277;49.890;8.222;2023-02-02T07:11:07;21.50;62.80
2995;DHT22;35277;49.890;8.222;2023-02-02T07:13:42;21.50;62.80
2995;DHT22;35277;49.890;8.222;2023-02-02T07:16:10;21.50;62.70
2995;DHT22;35277;49.890;8.222;2023-02-02T07:18:41;21.50;62.70
2995;DHT22;35277;49.890;8.222;2023-02-02T07:21:15;21.50;62.70
2995;DHT22;35277;49.890;8.222;2023-02-02T07:23:43;21.50;62.70
2995;DHT22;35277;49.890;8.222;2023-02-02T07:26:12;21.50;62.70
2995;DHT22;35277;49.890;8.222;2023-02-02T07:28:41;21.40;62.60
2995;DHT22;35277;49.890;8.222;2023-02-02T07:31:14;21.40;62.50
2995;DHT22;35277;49.890;8.222;2023-02-02T07:33:44;21.50;62.60
2995;DHT22;35277;49.890;8.222;2023-02-02T07:36:14;21.40;62.50
2995;DHT22;35277;49.890;8.222;2023-02-02T07:38:43;21.40;62.40
2995;DHT22;35277;49.890;8.222;2023-02-02T07:41:12;21.50;62.60
2995;DHT22;35277;49.890;8.222;2023-02-02T07:43:40;21.50;62.50
2995;DHT22;35277;49.890;8.222;2023-02-02T07:46:09;21.40;62.40
2995;DHT22;35277;49.890;8.222;2023-02-02T07:48:38;21.50;62.50
2995;DHT22;35277;49.890;8.222;2023-02-02T07:51:10;21.40;62.40
2995;DHT22;35277;49.890;8.222;2023-02-02T07:53:42;21.40;62.30
2995;DHT22;35277;49.890;8.222;2023-02-02T07:56:14;21.40;62.30
2995;DHT22;35277;49.890;8.222;2023-02-02T07:58:43;21.40;62.30
2995;DHT22;35277;49.890;8.222;2023-02-02T08:01:12;21.50;62.40
2995;DHT22;35277;49.890;8.222;2023-02-02T08:03:42;21.50;62.40
2995;DHT22;35277;49.890;8.222;2023-02-02T08:06:14;21.50;62.30
2995;DHT22;35277;49.890;8.222;2023-02-02T08:08:42;21.50;62.30
2995;DHT22;35277;49.890;8.222;2023-02-02T08:11:12;21.50;62.30
2995;DHT22;35277;49.890;8.222;2023-02-02T08:13:41;21.40;62.10
2995;DHT22;35277;49.890;8.222;2023-02-02T08:16:09;21.50;62.20
2995;DHT22;35277;49.890;8.222;2023-02-02T08:18:38;21.40;62.10
2995;DHT22;35277;49.890;8.222;2023-02-02T08:21:06;21.40;62.20
2995;DHT22;35277;49.890;8.222;2023-02-02T08:23:37;21.50;62.20
2995;DHT22;35277;49.890;8.222;2023-02-02T08:26:07;21.40;62.10
2995;DHT22;35277;49.890;8.222;2023-02-02T08:28:36;21.40;62.00
2995;DHT22;35277;49.890;8.222;2023-02-02T08:31:06;21.50;62.20
2995;DHT22;35277;49.890;8.222;2023-02-02T08:33:34;21.50;62.20
2995;DHT22;35277;49.890;8.222;2023-02-02T08:36:06;21.50;62.10
2995;DHT22;35277;49.890;8.222;2023-02-02T08:38:36;21.50;62.10
2995;DHT22;35277;49.890;8.222;2023-02-02T08:41:04;21.50;62.10
2995;DHT22;35277;49.890;8.222;2023-02-02T08:43:32;21.50;62.10
2995;DHT22;35277;49.890;8.222;2023-02-02T08:46:00;21.20;59.30
2995;DHT22;35277;49.890;8.222;2023-02-02T08:48:39;20.60;58.40
2995;DHT22;35277;49.890;8.222;2023-02-02T08:51:09;19.90;57.90
2995;DHT22;35277;49.890;8.222;2023-02-02T08:53:39;19.30;57.60
2995;DHT22;35277;49.890;8.222;2023-02-02T08:56:09;18.70;57.90
2995;DHT22;35277;49.890;8.222;2023-02-02T08:58:37;18.30;58.10
2995;DHT22;35277;49.890;8.222;2023-02-02T09:01:06;17.90;58.40
2995;DHT22;35277;49.890;8.222;2023-02-02T09:03:34;17.60;58.60
2995;DHT22;35277;49.890;8.222;2023-02-02T09:06:06;17.30;58.80
2995;DHT22;35277;49.890;8.222;2023-02-02T09:08:34;17.10;59.10
2995;DHT22;35277;49.890;8.222;2023-02-02T09:11:05;17.20;59.60
2995;DHT22;35277;49.890;8.222;2023-02-02T09:13:33;17.40;59.80
2995;DHT22;35277;49.890;8.222;2023-02-02T09:16:03;17.70;60.00
2995;DHT22;35277;49.890;8.222;2023-02-02T09:18:31;18.00;60.00
2995;DHT22;35277;49.890;8.222;2023-02-02T09:21:00;18.30;60.00
2995;DHT22;35277;49.890;8.222;2023-02-02T09:23:29;18.50;59.90
2995;DHT22;35277;49.890;8.222;2023-02-02T09:25:57;18.80;59.90
2995;DHT22;35277;49.890;8.222;2023-02-02T09:28:26;19.00;59.90
2995;DHT22;35277;49.890;8.222;2023-02-02T09:30:54;19.10;59.80
2995;DHT22;35277;49.890;8.222;2023-02-02T09:33:22;19.40;59.80
2995;DHT22;35277;49.890;8.222;2023-02-02T09:35:49;19.50;59.80
2995;DHT22;35277;49.890;8.222;2023-02-02T09:38:17;19.70;59.80
2995;DHT22;35277;49.890;8.222;2023-02-02T09:40:45;19.80;59.80
2995;DHT22;35277;49.890;8.222;2023-02-02T09:43:28;19.90;59.80
2995;DHT22;35277;49.890;8.222;2023-02-02T09:46:07;20.00;59.80
2995;DHT22;35277;49.890;8.222;2023-02-02T09:48:44;20.10;59.80
2995;DHT22;35277;49.890;8.222;2023-02-02T09:51:17;20.20;59.70
2995;DHT22;35277;49.890;8.222;2023-02-02T09:53:50;20.30;59.70
2995;DHT22;35277;49.890;8.222;2023-02-02T09:56:24;20.30;59.70
2995;DHT22;35277;49.890;8.222;2023-02-02T09:58:55;20.40;59.80
2995;DHT22;35277;49.890;8.222;2023-02-02T10:01:43;20.50;59.70
2995;DHT22;35277;49.890;8.222;2023-02-02T10:04:15;20.60;59.80
2995;DHT22;35277;49.890;8.222;2023-02-02T10:06:47;20.60;59.70
2995;DHT22;35277;49.890;8.222;2023-02-02T10:09:24;20.70;59.80
2995;DHT22;35277;49.890;8.222;2023-02-02T10:11:59;20.70;59.70
2995;DHT22;35277;49.890;8.222;2023-02-02T10:14:33;20.80;59.80
2995;DHT22;35277;49.890;8.222;2023-02-02T10:17:12;20.80;59.80
2995;DHT22;35277;49.890;8.222;2023-02-02T10:19:43;20.90;59.80
2995;DHT22;35277;49.890;8.222;2023-02-02T10:22:14;20.90;59.80
2995;DHT22;35277;49.890;8.222;2023-02-02T10:24:44;20.90;59.70
2995;DHT22;35277;49.890;8.222;2023-02-02T10:27:14;21.00;59.80
2995;DHT22;35277;49.890;8.222;2023-02-02T10:29:52;21.00;59.80
2995;DHT22;35277;49.890;8.222;2023-02-02T10:32:24;21.00;59.70
2995;DHT22;35277;49.890;8.222;2023-02-02T10:35:02;21.10;59.80
2995;DHT22;35277;49.890;8.222;2023-02-02T10:37:47;21.10;59.80
2995;DHT22;35277;49.890;8.222;2023-02-02T10:40:25;21.10;59.80
2995;DHT22;35277;49.890;8.222;2023-02-02T10:43:13;21.10;59.70
2995;DHT22;35277;49.890;8.222;2023-02-02T10:46:16;21.20;59.80
2995;DHT22;35277;49.890;8.222;2023-02-02T10:48:46;21.20;59.80
2995;DHT22;35277;49.890;8.222;2023-02-02T10:51:20;21.30;59.90
2995;DHT22;35277;49.890;8.222;2023-02-02T10:53:52;21.30;59.90
2995;DHT22;35277;49.890;8.222;2023-02-02T10:56:25;21.30;59.90
2995;DHT22;35277;49.890;8.222;2023-02-02T10:58:58;21.30;59.90
2995;DHT22;35277;49.890;8.222;2023-02-02T11:01:29;21.30;59.90
2995;DHT22;35277;49.890;8.222;2023-02-02T11:03:57;21.40;60.00
2995;DHT22;35277;49.890;8.222;2023-02-02T11:06:42;21.40;59.90
2995;DHT22;35277;49.890;8.222;2023-02-02T11:09:19;21.40;59.90
2995;DHT22;35277;49.890;8.222;2023-02-02T11:11:50;21.40;60.80
2995;DHT22;35277;49.890;8.222;2023-02-02T11:14:28;21.40;60.00
2995;DHT22;35277;49.890;8.222;2023-02-02T11:17:04;21.40;59.90
2995;DHT22;35277;49.890;8.222;2023-02-02T11:19:33;21.50;60.00
2995;DHT22;35277;49.890;8.222;2023-02-02T11:22:02;21.50;60.00
2995;DHT22;35277;49.890;8.222;2023-02-02T11:24:34;21.50;60.00
2995;DHT22;35277;49.890;8.222;2023-02-02T11:27:11;21.50;60.00
2995;DHT22;35277;49.890;8.222;2023-02-02T11:29:41;21.50;60.00
2995;DHT22;35277;49.890;8.222;2023-02-02T11:32:25;21.50;60.00
2995;DHT22;35277;49.890;8.222;2023-02-02T11:35:14;21.60;60.20
2995;DHT22;35277;49.890;8.222;2023-02-02T11:37:57;21.60;60.10
2995;DHT22;35277;49.890;8.222;2023-02-02T11:40:29;21.60;60.10
2995;DHT22;35277;49.890;8.222;2023-02-02T11:43:00;21.60;60.10
2995;DHT22;35277;49.890;8.222;2023-02-02T11:45:32;21.60;60.10
2995;DHT22;35277;49.890;8.222;2023-02-02T11:48:05;21.60;60.10
2995;DHT22;35277;49.890;8.222;2023-02-02T11:50:34;21.60;60.10
2995;DHT22;35277;49.890;8.222;2023-02-02T11:53:02;21.60;60.10
2995;DHT22;35277;49.890;8.222;2023-02-02T11:55:30;21.60;60.10
2995;DHT22;35277;49.890;8.222;2023-02-02T11:58:30;21.70;60.20
2995;DHT22;35277;49.890;8.222;2023-02-02T12:01:22;21.70;60.20
2995;DHT22;35277;49.890;8.222;2023-02-02T12:03:53;21.70;60.20
2995;DHT22;35277;49.890;8.222;2023-02-02T12:06:24;21.70;60.20
2995;DHT22;35277;49.890;8.222;2023-02-02T12:08:54;21.70;60.20
2995;DHT22;35277;49.890;8.222;2023-02-02T12:11:37;21.70;60.20
2995;DHT22;35277;49.890;8.222;2023-02-02T12:14:16;21.70;60.20
2995;DHT22;35277;49.890;8.222;2023-02-02T12:16:51;21.70;60.30
2995;DHT22;35277;49.890;8.222;2023-02-02T12:19:43;21.70;60.30
2995;DHT22;35277;49.890;8.222;2023-02-02T12:22:31;21.70;60.30
2995;DHT22;35277;49.890;8.222;2023-02-02T12:25:07;21.70;60.30
2995;DHT22;35277;49.890;8.222;2023-02-02T12:27:48;21.80;60.40
2995;DHT22;35277;49.890;8.222;2023-02-02T12:30:26;21.80;60.40
2995;DHT22;35277;49.890;8.222;2023-02-02T12:33:17;21.80;60.40
2995;DHT22;35277;49.890;8.222;2023-02-02T12:36:00;21.80;60.50
2995;DHT22;35277;49.890;8.222;2023-02-02T12:38:44;21.80;60.40
2995;DHT22;35277;49.890;8.222;2023-02-02T12:41:33;21.80;60.50
2995;DHT22;35277;49.890;8.222;2023-02-02T12:44:10;21.80;60.50
2995;DHT22;35277;49.890;8.222;2023-02-02T12:46:55;21.80;60.50
2995;DHT22;35277;49.890;8.222;2023-02-02T12:49:55;21.80;60.50
2995;DHT22;35277;49.890;8.222;2023-02-02T12:52:38;21.80;60.50
2995;DHT22;35277;49.890;8.222;2023-02-02T12:55:23;21.80;60.50
2995;DHT22;35277;49.890;8.222;2023-02-02T12:58:01;21.80;60.50
2995;DHT22;35277;49.890;8.222;2023-02-02T13:04:06;21.80;60.50
2995;DHT22;35277;49.890;8.222;2023-02-02T13:06:52;21.80;60.50
2995;DHT22;35277;49.890;8.222;2023-02-02T13:09:32;21.80;60.50
2995;DHT22;35277;49.890;8.222;2023-02-02T13:12:06;21.80;60.50
2995;DHT22;35277;49.890;8.222;2023-02-02T13:14:36;21.80;60.50
2995;DHT22;35277;49.890;8.222;2023-02-02T13:17:11;21.80;60.50
2995;DHT22;35277;49.890;8.222;2023-02-02T13:19:42;21.80;60.50
2995;DHT22;35277;49.890;8.222;2023-02-02T13:22:13;21.80;60.50
2995;DHT22;35277;49.890;8.222;2023-02-02T13:24:46;21.80;60.50
2995;DHT22;35277;49.890;8.222;2023-02-02T13:27:17;21.80;60.50
2995;DHT22;35277;49.890;8.222;2023-02-02T13:29:51;21.90;60.50
2995;DHT22;35277;49.890;8.222;2023-02-02T13:32:25;21.90;60.50
2995;DHT22;35277;49.890;8.222;2023-02-02T13:34:57;21.90;60.50
2995;DHT22;35277;49.890;8.222;2023-02-02T13:37:30;21.90;60.50
2995;DHT22;35277;49.890;8.222;2023-02-02T13:40:14;21.90;60.60
2995;DHT22;35277;49.890;8.222;2023-02-02T13:42:48;21.90;60.60
2995;DHT22;35277;49.890;8.222;2023-02-02T13:45:34;21.90;60.60
2995;DHT22;35277;49.890;8.222;2023-02-02T13:48:13;21.90;60.60
2995;DHT22;35277;49.890;8.222;2023-02-02T13:50:49;21.90;60.60
2995;DHT22;35277;49.890;8.222;2023-02-02T13:53:35;21.90;60.70
2995;DHT22;35277;49.890;8.222;2023-02-02T13:56:19;21.90;60.70
2995;DHT22;35277;49.890;8.222;2023-02-02T13:59:06;21.90;60.70
2995;DHT22;35277;49.890;8.222;2023-02-02T14:01:36;21.90;60.70
2995;DHT22;35277;49.890;8.222;2023-02-02T14:04:18;21.90;60.70
2995;DHT22;35277;49.890;8.222;2023-02-02T14:06:53;21.90;60.80
2995;DHT22;35277;49.890;8.222;2023-02-02T14:09:25;21.90;60.70
2995;DHT22;35277;49.890;8.222;2023-02-02T14:11:58;21.90;60.70
2995;DHT22;35277;49.890;8.222;2023-02-02T14:14:26;21.80;60.60
2995;DHT22;35277;49.890;8.222;2023-02-02T14:17:03;21.80;60.60
2995;DHT22;35277;49.890;8.222;2023-02-02T14:19:50;21.90;61.60
2995;DHT22;35277;49.890;8.222;2023-02-02T14:22:37;21.90;60.80
2995;DHT22;35277;49.890;8.222;2023-02-02T14:28:11;21.80;60.70
2995;DHT22;35277;49.890;8.222;2023-02-02T14:30:39;21.90;60.80
2995;DHT22;35277;49.890;8.222;2023-02-02T14:33:39;21.80;60.70
2995;DHT22;35277;49.890;8.222;2023-02-02T14:36:14;21.90;60.80
2995;DHT22;35277;49.890;8.222;2023-02-02T14:39:04;21.80;60.70
2995;DHT22;35277;49.890;8.222;2023-02-02T14:41:50;21.80;60.70
2995;DHT22;35277;49.890;8.222;2023-02-02T14:47:51;21.80;60.70
2995;DHT22;35277;49.890;8.222;2023-02-02T14:50:30;21.80;60.60
2995;DHT22;35277;49.890;8.222;2023-02-02T14:53:04;21.80;60.60
2995;DHT22;35277;49.890;8.222;2023-02-02T14:55:48;21.80;60.60
2995;DHT22;35277;49.890;8.222;2023-02-02T14:58:23;21.80;60.60
2995;DHT22;35277;49.890;8.222;2023-02-02T15:01:01;21.80;60.60
2995;DHT22;35277;49.890;8.222;2023-02-02T15:03:44;21.80;60.60
2995;DHT22;35277;49.890;8.222;2023-02-02T15:06:23;21.80;60.60
2995;DHT22;35277;49.890;8.222;2023-02-02T15:09:24;21.80;60.60
2995;DHT22;35277;49.890;8.222;2023-02-02T15:12:15;21.80;60.60
2995;DHT22;35277;49.890;8.222;2023-02-02T15:14:47;21.80;60.60
2995;DHT22;35277;49.890;8.222;2023-02-02T15:17:23;21.80;60.60
2995;DHT22;35277;49.890;8.222;2023-02-02T15:20:00;21.80;60.50
2995;DHT22;35277;49.890;8.222;2023-02-02T15:22:35;21.80;60.50
2995;DHT22;35277;49.890;8.222;2023-02-02T15:25:11;21.70;60.40
2995;DHT22;35277;49.890;8.222;2023-02-02T15:27:44;21.70;60.40
2995;DHT22;35277;49.890;8.222;2023-02-02T15:30:23;21.70;60.40
2995;DHT22;35277;49.890;8.222;2023-02-02T15:32:54;21.70;60.40
2995;DHT22;35277;49.890;8.222;2023-02-02T15:35:27;21.70;60.50
2995;DHT22;35277;49.890;8.222;2023-02-02T15:37:58;21.70;60.40
2995;DHT22;35277;49.890;8.222;2023-02-02T15:40:29;21.70;60.40
2995;DHT22;35277;49.890;8.222;2023-02-02T15:42:59;21.70;61.30
2995;DHT22;35277;49.890;8.222;2023-02-02T15:45:33;21.70;60.40
2995;DHT22;35277;49.890;8.222;2023-02-02T15:48:11;21.70;60.40
2995;DHT22;35277;49.890;8.222;2023-02-02T15:50:44;21.70;60.40
2995;DHT22;35277;49.890;8.222;2023-02-02T15:53:17;21.70;60.40
2995;DHT22;35277;49.890;8.222;2023-02-02T15:55:47;21.70;60.50
2995;DHT22;35277;49.890;8.222;2023-02-02T15:58:26;21.70;60.40
2995;DHT22;35277;49.890;8.222;2023-02-02T16:01:05;21.70;60.50
2995;DHT22;35277;49.890;8.222;2023-02-02T16:03:39;21.70;60.40
2995;DHT22;35277;49.890;8.222;2023-02-02T16:06:10;21.60;60.40
2995;DHT22;35277;49.890;8.222;2023-02-02T16:08:39;21.60;60.50
2995;DHT22;35277;49.890;8.222;2023-02-02T16:11:12;21.60;60.50
2995;DHT22;35277;49.890;8.222;2023-02-02T16:13:43;21.60;60.50
2995;DHT22;35277;49.890;8.222;2023-02-02T16:16:23;21.60;60.50
2995;DHT22;35277;49.890;8.222;2023-02-02T16:19:04;21.70;60.70
2995;DHT22;35277;49.890;8.222;2023-02-02T16:21:36;21.60;60.60
2995;DHT22;35277;49.890;8.222;2023-02-02T16:24:12;21.60;60.70
2995;DHT22;35277;49.890;8.222;2023-02-02T16:26:41;21.60;60.70
2995;DHT22;35277;49.890;8.222;2023-02-02T16:29:10;21.60;60.70
2995;DHT22;35277;49.890;8.222;2023-02-02T16:31:43;21.60;60.80